createdAt,value
2023-02-17T00:00:34.078Z,-5.66
2023-02-17T00:02:36.875Z,-5.65
2023-02-17T00:04:39.452Z,-5.63
2023-02-17T00:06:42.151Z,-5.60
2023-02-17T00:08:45.340Z,-5.56
2023-02-17T00:10:58.862Z,-5.56
2023-02-17T00:13:01.453Z,-5.52
2023-02-17T00:15:04.491Z,-5.52
2023-02-17T00:17:07.765Z,-5.49
2023-02-17T00:19:25.273Z,-5.47
2023-02-17T00:21:31.226Z,-5.46
2023-02-17T00:23:33.807Z,-5.41
2023-02-17T00:25:38.204Z,-5.39
2023-02-17T00:27:40.829Z,-5.39
2023-02-17T00:29:43.917Z,-5.37
2023-02-17T00:31:47.323Z,-5.33
2023-02-17T00:33:50.021Z,-5.32
2023-02-17T00:35:52.769Z,-5.29
2023-02-17T00:37:55.439Z,-5.29
2023-02-17T00:39:58.063Z,-5.35
2023-02-17T00:42:00.641Z,-5.26
2023-02-17T00:44:03.569Z,-5.23
2023-02-17T00:46:07.344Z,-5.23
2023-02-17T00:48:10.970Z,-5.20
2023-02-17T00:50:13.574Z,-5.22
2023-02-17T00:52:16.310Z,-5.22
2023-02-17T00:54:19.759Z,-5.21
2023-02-17T00:56:22.395Z,-5.21
2023-02-17T00:58:25.198Z,-5.21
2023-02-17T01:00:27.775Z,-5.20
2023-02-17T01:02:30.421Z,-5.21
2023-02-17T01:04:33.155Z,-5.20
2023-02-17T01:06:38.924Z,-5.20
2023-02-17T01:08:41.530Z,-5.22
2023-02-17T01:10:46.121Z,-5.21
2023-02-17T01:12:48.711Z,-5.21
2023-02-17T01:14:51.302Z,-5.22
2023-02-17T01:16:53.955Z,-5.22
2023-02-17T01:18:56.885Z,-5.25
2023-02-17T01:20:59.516Z,-5.26
2023-02-17T01:23:02.563Z,-5.29
2023-02-17T01:25:05.563Z,-5.29
2023-02-17T01:27:08.778Z,-5.32
2023-02-17T01:29:11.573Z,-5.32
2023-02-17T01:31:14.928Z,-5.33
2023-02-17T01:33:17.655Z,-5.32
2023-02-17T01:35:20.310Z,-5.33
2023-02-17T01:37:23.187Z,-5.33
2023-02-17T01:39:25.758Z,-5.35
2023-02-17T01:41:29.105Z,-5.35
2023-02-17T01:43:32.066Z,-5.38
2023-02-17T01:45:46.338Z,-5.37
2023-02-17T01:48:03.684Z,-5.44
2023-02-17T01:50:06.799Z,-5.38
2023-02-17T01:52:14.829Z,-5.39
2023-02-17T01:54:22.591Z,-5.41
2023-02-17T01:56:26.193Z,-5.41
2023-02-17T01:58:30.994Z,-5.41
2023-02-17T02:00:34.491Z,-5.38
2023-02-17T02:02:38.349Z,-5.37
2023-02-17T02:04:45.011Z,-5.36
2023-02-17T02:06:48.059Z,-5.34
2023-02-17T02:08:56.416Z,-5.30
2023-02-17T02:10:59.093Z,-5.29
2023-02-17T02:13:01.771Z,-5.25
2023-02-17T02:15:11.324Z,-5.24
2023-02-17T02:17:28.836Z,-5.19
2023-02-17T02:19:52.049Z,-5.18
2023-02-17T02:22:28.725Z,-5.18
2023-02-17T02:24:57.091Z,-5.18
2023-02-17T02:27:17.939Z,-5.19
2023-02-17T02:29:29.907Z,-5.16
2023-02-17T02:31:44.532Z,-5.13
2023-02-17T02:34:15.928Z,-5.14
2023-02-17T02:36:23.113Z,-5.17
2023-02-17T02:38:38.037Z,-5.16
2023-02-17T02:40:50.513Z,-5.14
2023-02-17T02:42:54.964Z,-5.14
2023-02-17T02:44:58.251Z,-5.15
2023-02-17T02:47:04.599Z,-5.15
2023-02-17T02:49:08.543Z,-5.15
2023-02-17T02:51:43.572Z,-5.16
2023-02-17T02:54:22.652Z,-5.18
2023-02-17T02:56:44.275Z,-5.20
2023-02-17T02:59:14.231Z,-5.23
2023-02-17T03:02:09.510Z,-5.24
2023-02-17T03:04:19.453Z,-5.26
2023-02-17T03:06:50.221Z,-5.27
2023-02-17T03:09:27.311Z,-5.29
2023-02-17T03:11:32.860Z,-5.30
2023-02-17T03:13:39.646Z,-5.31
2023-02-17T03:15:42.784Z,-5.30
2023-02-17T03:17:45.350Z,-5.31
2023-02-17T03:19:47.982Z,-5.35
2023-02-17T03:21:53.025Z,-5.33
2023-02-17T03:23:55.661Z,-5.37
2023-02-17T03:25:59.221Z,-5.39
2023-02-17T03:28:01.905Z,-5.47
2023-02-17T03:30:05.067Z,-5.56
2023-02-17T03:32:08.201Z,-5.58
2023-02-17T03:34:10.863Z,-5.65
2023-02-17T03:36:13.533Z,-5.69
2023-02-17T03:38:16.161Z,-5.75
2023-02-17T03:40:19.048Z,-5.80
2023-02-17T03:42:21.835Z,-5.85
2023-02-17T03:44:24.499Z,-5.89
2023-02-17T03:46:27.176Z,-5.90
2023-02-17T03:48:30.133Z,-5.96
2023-02-17T03:50:32.937Z,-6.00
2023-02-17T03:52:35.678Z,-6.07
2023-02-17T03:54:38.507Z,-6.09
2023-02-17T03:56:41.139Z,-6.11
2023-02-17T03:58:44.547Z,-6.16
2023-02-17T04:00:47.139Z,-6.23
2023-02-17T04:02:49.757Z,-6.25
2023-02-17T04:04:52.439Z,-6.27
2023-02-17T04:06:55.148Z,-6.25
2023-02-17T04:08:57.689Z,-6.24
2023-02-17T04:11:02.153Z,-6.30
2023-02-17T04:13:04.816Z,-6.35
2023-02-17T04:15:07.898Z,-6.37
2023-02-17T04:17:10.543Z,-6.36
2023-02-17T04:19:13.222Z,-6.38
2023-02-17T04:21:15.845Z,-6.43
2023-02-17T04:23:19.378Z,-6.40
2023-02-17T04:25:22.039Z,-6.41
2023-02-17T04:27:24.700Z,-6.41
2023-02-17T04:29:27.274Z,-6.39
2023-02-17T04:31:29.940Z,-6.41
2023-02-17T04:33:32.644Z,-6.43
2023-02-17T04:35:35.198Z,-6.40
2023-02-17T04:37:37.890Z,-6.39
2023-02-17T04:39:40.464Z,-6.36
2023-02-17T04:41:43.185Z,-6.35
2023-02-17T04:43:45.792Z,-6.34
2023-02-17T04:45:48.418Z,-6.30
2023-02-17T04:47:51.068Z,-6.26
2023-02-17T04:49:53.616Z,-6.23
2023-02-17T04:51:56.204Z,-6.20
2023-02-17T04:53:58.869Z,-6.16
2023-02-17T04:56:01.561Z,-6.13
2023-02-17T04:58:04.881Z,-6.13
2023-02-17T05:00:08.679Z,-6.04
2023-02-17T05:02:11.501Z,-6.05
2023-02-17T05:04:14.148Z,-6.06
2023-02-17T05:06:16.768Z,-6.01
2023-02-17T05:08:19.425Z,-5.99
2023-02-17T05:10:23.930Z,-5.99
2023-02-17T05:12:26.665Z,-5.99
2023-02-17T05:14:29.750Z,-5.93
2023-02-17T05:16:32.328Z,-5.94
2023-02-17T05:18:34.955Z,-5.95
2023-02-17T05:20:37.640Z,-5.93
2023-02-17T05:22:40.288Z,-5.94
2023-02-17T05:24:42.966Z,-5.94
2023-02-17T05:26:45.778Z,-5.90
2023-02-17T05:28:48.447Z,-5.88
2023-02-17T05:30:51.494Z,-5.86
2023-02-17T05:32:54.181Z,-5.83
2023-02-17T05:34:56.802Z,-5.80
2023-02-17T05:36:59.457Z,-5.77
2023-02-17T05:39:02.296Z,-5.74
2023-02-17T05:41:05.447Z,-5.70
2023-02-17T05:43:08.135Z,-5.63
2023-02-17T05:45:11.500Z,-5.60
2023-02-17T05:47:14.091Z,-5.56
2023-02-17T05:49:16.731Z,-5.53
2023-02-17T05:51:19.656Z,-5.49
2023-02-17T05:53:22.277Z,-5.43
2023-02-17T05:55:24.974Z,-5.40
2023-02-17T05:57:27.828Z,-5.34
2023-02-17T05:59:30.391Z,-5.29
2023-02-17T06:01:33.114Z,-5.21
2023-02-17T06:03:35.888Z,-5.16
2023-02-17T06:05:38.863Z,-5.13
2023-02-17T06:07:41.452Z,-5.10
2023-02-17T06:09:45.339Z,-5.02
2023-02-17T06:11:49.725Z,-5.00
2023-02-17T06:13:52.408Z,-4.94
2023-02-17T06:15:55.126Z,-4.91
2023-02-17T06:17:57.811Z,-4.84
2023-02-17T06:20:00.508Z,-4.79
2023-02-17T06:22:03.254Z,-4.73
2023-02-17T06:24:06.284Z,-4.64
2023-02-17T06:26:09.089Z,-4.62
2023-02-17T06:28:12.012Z,-4.56
2023-02-17T06:30:15.341Z,-4.53
2023-02-17T06:32:18.214Z,-4.48
2023-02-17T06:34:20.838Z,-4.43
2023-02-17T06:36:23.471Z,-4.41
2023-02-17T06:38:26.184Z,-4.36
2023-02-17T06:40:28.943Z,-4.32
2023-02-17T06:42:31.589Z,-4.29
2023-02-17T06:44:34.172Z,-4.26
2023-02-17T06:46:36.966Z,-4.20
2023-02-17T06:48:39.607Z,-4.10
2023-02-17T06:50:42.304Z,-4.03
2023-02-17T06:52:44.907Z,-3.99
2023-02-17T06:54:47.555Z,-3.94
2023-02-17T06:56:50.184Z,-3.90
2023-02-17T06:58:52.765Z,-3.84
2023-02-17T07:00:55.353Z,-3.73
2023-02-17T07:02:58.086Z,-3.68
2023-02-17T07:05:00.703Z,-3.64
2023-02-17T07:07:03.467Z,-3.63
2023-02-17T07:09:06.308Z,-3.58
2023-02-17T07:11:10.787Z,-3.54
2023-02-17T07:13:13.340Z,-3.51
2023-02-17T07:15:16.100Z,-3.45
2023-02-17T07:17:18.697Z,-3.38
2023-02-17T07:19:21.420Z,-3.33
2023-02-17T07:21:24.035Z,-3.30
2023-02-17T07:23:26.946Z,-3.26
2023-02-17T07:25:29.546Z,-3.21
2023-02-17T07:27:32.468Z,-3.15
2023-02-17T07:29:35.591Z,-3.05
2023-02-17T07:31:38.526Z,-2.98
2023-02-17T07:33:41.670Z,-2.86
2023-02-17T07:35:44.807Z,-2.76
2023-02-17T07:37:47.571Z,-2.67
2023-02-17T07:39:50.127Z,-2.60
2023-02-17T07:41:52.751Z,-2.57
2023-02-17T07:43:57.087Z,-2.51
2023-02-17T07:45:59.828Z,-2.41
2023-02-17T07:48:02.490Z,-2.34
2023-02-17T07:50:05.848Z,-2.29
2023-02-17T07:52:08.461Z,-2.24
2023-02-17T07:54:11.128Z,-2.20
2023-02-17T07:56:15.936Z,-2.15
2023-02-17T07:58:18.716Z,-2.04
2023-02-17T08:00:21.543Z,-2.00
2023-02-17T08:02:24.158Z,-2.07
2023-02-17T08:04:27.166Z,-2.04
2023-02-17T08:06:30.177Z,-2.03
2023-02-17T08:08:51.374Z,-1.98
2023-02-17T08:11:12.301Z,-2.00
2023-02-17T08:13:20.895Z,-2.04
2023-02-17T08:15:23.536Z,-2.02
2023-02-17T08:17:26.145Z,-1.90
2023-02-17T08:19:42.800Z,-1.82
2023-02-17T08:21:50.261Z,-1.67
2023-02-17T08:23:53.268Z,-1.59
2023-02-17T08:25:58.062Z,-1.55
2023-02-17T08:28:01.071Z,-1.44
2023-02-17T08:30:04.248Z,-1.42
2023-02-17T08:32:07.795Z,-1.35
2023-02-17T08:34:13.056Z,-1.29
2023-02-17T08:36:16.227Z,-1.28
2023-02-17T08:38:18.833Z,-1.26
2023-02-17T08:40:21.476Z,-1.16
2023-02-17T08:42:26.318Z,-1.06
2023-02-17T08:44:28.984Z,-0.97
2023-02-17T08:46:31.669Z,-0.87
2023-02-17T08:48:36.488Z,-0.82
2023-02-17T08:50:39.250Z,-0.78
2023-02-17T08:52:42.283Z,-0.78
2023-02-17T08:54:44.855Z,-0.77
2023-02-17T08:56:47.472Z,-0.77
2023-02-17T08:58:50.766Z,-0.73
2023-02-17T09:00:53.458Z,-0.70
2023-02-17T09:02:56.045Z,-0.80
2023-02-17T09:04:58.661Z,-0.87
2023-02-17T09:07:01.428Z,-0.97
2023-02-17T09:09:06.171Z,-1.03
2023-02-17T09:11:09.760Z,-1.10
2023-02-17T09:13:12.451Z,-1.13
2023-02-17T09:15:15.105Z,-1.19
2023-02-17T09:17:17.772Z,-1.25
2023-02-17T09:19:21.206Z,-1.24
2023-02-17T09:21:24.373Z,-1.22
2023-02-17T09:23:27.212Z,-1.20
2023-02-17T09:25:29.817Z,-1.11
2023-02-17T09:27:32.619Z,-1.06
2023-02-17T09:29:38.092Z,-1.08
2023-02-17T09:31:41.628Z,-1.03
2023-02-17T09:33:44.846Z,-0.99
2023-02-17T09:35:49.406Z,-1.05
2023-02-17T09:37:52.545Z,-1.23
2023-02-17T09:39:55.240Z,-1.33
2023-02-17T09:41:58.189Z,-1.41
2023-02-17T09:44:01.636Z,-1.50
2023-02-17T09:46:12.553Z,-1.59
2023-02-17T09:48:18.135Z,-1.71
2023-02-17T09:50:26.374Z,-1.66
2023-02-17T09:52:53.730Z,-1.65
2023-02-17T09:55:15.919Z,-1.53
2023-02-17T09:57:22.173Z,-1.47
2023-02-17T09:59:32.856Z,-1.40
2023-02-17T10:01:37.087Z,-1.38
2023-02-17T10:03:41.828Z,-1.39
2023-02-17T10:06:10.106Z,-1.42
2023-02-17T10:08:22.939Z,-1.31
2023-02-17T10:10:40.274Z,-1.21
2023-02-17T10:12:54.262Z,-1.17
2023-02-17T10:15:06.027Z,-1.21
2023-02-17T10:17:15.846Z,-1.26
2023-02-17T10:19:36.964Z,-1.21
2023-02-17T10:22:15.117Z,-1.35
2023-02-17T10:24:17.776Z,-1.42
2023-02-17T10:27:04.924Z,-1.38
2023-02-17T10:29:29.088Z,-1.44
2023-02-17T10:32:02.687Z,-1.52
2023-02-17T10:34:36.452Z,-1.59
2023-02-17T10:36:56.553Z,-1.65
2023-02-17T10:39:16.351Z,-1.64
2023-02-17T10:41:26.847Z,-1.65
2023-02-17T10:43:33.181Z,-1.50
2023-02-17T10:45:45.304Z,-1.44
2023-02-17T10:47:47.919Z,-1.49
2023-02-17T10:49:53.542Z,-1.47
2023-02-17T10:52:10.115Z,-1.42
2023-02-17T10:54:38.474Z,-1.32
2023-02-17T10:56:52.009Z,-1.28
2023-02-17T10:59:01.301Z,-1.27
2023-02-17T11:01:06.458Z,-1.34
2023-02-17T11:03:24.086Z,-1.28
2023-02-17T11:05:32.771Z,-1.25
2023-02-17T11:07:44.308Z,-1.23
2023-02-17T11:09:59.117Z,-1.35
2023-02-17T11:12:11.121Z,-1.36
2023-02-17T11:14:19.418Z,-1.37
2023-02-17T11:16:27.523Z,-1.53
2023-02-17T11:18:39.289Z,-1.55
2023-02-17T11:20:42.099Z,-1.51
2023-02-17T11:22:48.569Z,-1.65
2023-02-17T11:24:59.510Z,-1.62
2023-02-17T11:27:09.213Z,-1.54
2023-02-17T11:29:21.883Z,-1.51
2023-02-17T11:31:30.883Z,-1.43
2023-02-17T11:33:38.035Z,-1.40
2023-02-17T11:35:42.107Z,-1.29
2023-02-17T11:37:45.281Z,-1.36
2023-02-17T11:39:56.325Z,-1.46
2023-02-17T11:41:59.564Z,-1.56
2023-02-17T11:44:02.441Z,-1.67
2023-02-17T11:46:14.270Z,-1.75
2023-02-17T11:48:35.891Z,-1.82
2023-02-17T11:50:52.320Z,-1.84
2023-02-17T11:53:23.576Z,-1.93
2023-02-17T11:55:44.499Z,-1.92
2023-02-17T11:58:11.115Z,-1.87
2023-02-17T12:00:35.112Z,-1.87
2023-02-17T12:03:05.524Z,-1.92
2023-02-17T12:05:28.322Z,-2.03
2023-02-17T12:08:06.247Z,-2.16
2023-02-17T12:10:25.082Z,-2.24
2023-02-17T12:12:46.176Z,-2.27
2023-02-17T12:15:00.896Z,-2.30
2023-02-17T12:17:17.165Z,-2.38
2023-02-17T12:19:37.856Z,-2.46
2023-02-17T12:21:59.946Z,-2.47
2023-02-17T12:24:26.964Z,-2.48
2023-02-17T12:26:48.392Z,-2.55
2023-02-17T12:29:09.660Z,-2.69
2023-02-17T12:31:45.383Z,-2.73
2023-02-17T12:34:01.403Z,-2.85
2023-02-17T12:36:16.027Z,-2.88
2023-02-17T12:38:33.793Z,-2.94
2023-02-17T12:40:41.475Z,-2.97
2023-02-17T12:43:00.939Z,-2.96
2023-02-17T12:45:17.713Z,-2.99
2023-02-17T12:47:30.621Z,-3.00
2023-02-17T12:49:57.871Z,-2.99
2023-02-17T12:52:25.201Z,-3.06
2023-02-17T12:54:37.316Z,-3.09
2023-02-17T12:57:08.213Z,-3.16
2023-02-17T12:59:38.596Z,-3.23
2023-02-17T13:01:52.110Z,-3.28
2023-02-17T13:03:54.877Z,-3.34
2023-02-17T13:06:16.681Z,-3.44
2023-02-17T13:08:30.197Z,-3.51
2023-02-17T13:10:39.010Z,-3.56
2023-02-17T13:12:41.797Z,-3.58
2023-02-17T13:14:48.009Z,-3.58
2023-02-17T13:16:50.741Z,-3.65
2023-02-17T13:18:53.382Z,-3.73
2023-02-17T13:21:02.250Z,-3.82
2023-02-17T13:23:26.898Z,-3.88
2023-02-17T13:25:32.515Z,-3.98
2023-02-17T13:27:37.222Z,-4.05
2023-02-17T13:29:40.119Z,-4.09
2023-02-17T13:31:48.908Z,-4.10
2023-02-17T13:33:57.965Z,-4.11
2023-02-17T13:36:11.577Z,-4.13
2023-02-17T13:38:25.541Z,-4.21
2023-02-17T13:40:30.912Z,-4.20
2023-02-17T13:42:36.254Z,-4.21
2023-02-17T13:44:42.237Z,-4.23
2023-02-17T13:46:46.012Z,-4.30
2023-02-17T13:48:59.969Z,-4.25
2023-02-17T13:51:07.743Z,-4.22
2023-02-17T13:53:36.671Z,-4.21
2023-02-17T13:55:42.059Z,-4.20
2023-02-17T13:57:45.068Z,-4.25
2023-02-17T13:59:47.675Z,-4.26
2023-02-17T14:01:51.267Z,-4.27
2023-02-17T14:03:56.259Z,-4.25
2023-02-17T14:06:02.026Z,-4.22
2023-02-17T14:08:12.284Z,-4.22
2023-02-17T14:10:23.780Z,-4.21
2023-02-17T14:12:30.584Z,-4.25
2023-02-17T14:14:37.494Z,-4.27
2023-02-17T14:16:43.642Z,-4.30
2023-02-17T14:18:46.565Z,-4.35
2023-02-17T14:21:02.576Z,-4.37
2023-02-17T14:23:13.633Z,-4.38
2023-02-17T14:25:29.000Z,-4.40
2023-02-17T14:27:50.659Z,-4.42
2023-02-17T14:29:53.786Z,-4.42
2023-02-17T14:31:56.889Z,-4.45
2023-02-17T14:34:03.359Z,-4.50
2023-02-17T14:36:09.320Z,-4.54
2023-02-17T14:38:27.866Z,-4.57
2023-02-17T14:40:31.026Z,-4.60
2023-02-17T14:42:34.000Z,-4.62
2023-02-17T14:44:36.564Z,-4.65
2023-02-17T14:46:40.183Z,-4.71
2023-02-17T14:48:42.856Z,-4.72
2023-02-17T14:50:46.227Z,-4.75
2023-02-17T14:52:52.565Z,-4.79
2023-02-17T14:54:55.143Z,-4.82
2023-02-17T14:57:08.169Z,-4.88
2023-02-17T14:59:11.064Z,-4.90
2023-02-17T15:01:16.065Z,-4.92
2023-02-17T15:03:19.075Z,-4.94
2023-02-17T15:05:21.703Z,-4.98
2023-02-17T15:07:24.711Z,-5.01
2023-02-17T15:09:30.776Z,-5.03
2023-02-17T15:11:37.643Z,-5.02
2023-02-17T15:13:40.253Z,-5.00
2023-02-17T15:15:47.811Z,-5.01
2023-02-17T15:17:50.752Z,-4.99
2023-02-17T15:19:53.399Z,-4.99
2023-02-17T15:21:57.351Z,-4.99
2023-02-17T15:24:02.057Z,-4.95
2023-02-17T15:26:06.402Z,-4.91
2023-02-17T15:28:13.654Z,-4.89
2023-02-17T15:30:21.267Z,-4.83
2023-02-17T15:32:24.248Z,-4.83
2023-02-17T15:34:31.209Z,-4.82
2023-02-17T15:36:33.869Z,-4.78
2023-02-17T15:38:36.710Z,-4.74
2023-02-17T15:40:40.867Z,-4.71
2023-02-17T15:42:45.099Z,-4.69
2023-02-17T15:44:50.508Z,-4.65
2023-02-17T15:46:55.061Z,-4.69
2023-02-17T15:48:58.230Z,-4.69
2023-02-17T15:51:00.917Z,-4.71
2023-02-17T15:53:03.609Z,-4.75
2023-02-17T15:55:06.772Z,-4.79
2023-02-17T15:57:21.214Z,-4.88
2023-02-17T15:59:26.805Z,-4.89
2023-02-17T16:01:33.925Z,-4.92
2023-02-17T16:03:36.614Z,-4.93
2023-02-17T16:05:40.165Z,-4.87
2023-02-17T16:07:43.262Z,-4.92
2023-02-17T16:09:46.004Z,-4.91
2023-02-17T16:11:51.937Z,-4.94
2023-02-17T16:13:54.838Z,-4.91
2023-02-17T16:15:59.382Z,-4.92
2023-02-17T16:18:02.036Z,-4.89
2023-02-17T16:20:05.550Z,-4.92
2023-02-17T16:22:20.994Z,-4.97
2023-02-17T16:24:23.632Z,-5.06
2023-02-17T16:26:33.523Z,-5.07
2023-02-17T16:28:37.034Z,-5.07
2023-02-17T16:30:39.736Z,-5.08
2023-02-17T16:32:42.420Z,-5.10
2023-02-17T16:34:45.008Z,-5.08
2023-02-17T16:36:49.643Z,-5.12
2023-02-17T16:38:52.422Z,-5.24
2023-02-17T16:40:55.616Z,-5.17
2023-02-17T16:42:58.695Z,-5.13
2023-02-17T16:45:01.464Z,-5.21
2023-02-17T16:47:08.249Z,-5.15
2023-02-17T16:49:28.485Z,-5.23
2023-02-17T16:51:31.151Z,-5.29
2023-02-17T16:53:33.816Z,-5.32
2023-02-17T16:55:36.896Z,-5.35
2023-02-17T16:57:39.672Z,-5.37
2023-02-17T16:59:42.408Z,-5.43
2023-02-17T17:01:45.867Z,-5.47
2023-02-17T17:03:48.470Z,-5.58
2023-02-17T17:05:54.247Z,-5.65
2023-02-17T17:07:57.277Z,-5.65
2023-02-17T17:10:15.126Z,-5.72
2023-02-17T17:12:18.318Z,-5.85
2023-02-17T17:14:21.914Z,-5.86
2023-02-17T17:16:34.997Z,-5.92
2023-02-17T17:18:37.602Z,-5.97
2023-02-17T17:20:41.733Z,-6.03
2023-02-17T17:22:46.812Z,-6.03
2023-02-17T17:24:49.531Z,-6.08
2023-02-17T17:26:52.312Z,-6.15
2023-02-17T17:28:55.595Z,-6.18
2023-02-17T17:30:58.218Z,-6.21
2023-02-17T17:33:00.911Z,-6.24
2023-02-17T17:35:03.568Z,-6.31
2023-02-17T17:37:06.662Z,-6.35
2023-02-17T17:39:15.623Z,-6.39
2023-02-17T17:41:18.546Z,-6.45
2023-02-17T17:43:22.644Z,-6.50
2023-02-17T17:45:25.816Z,-6.57
2023-02-17T17:47:30.462Z,-6.51
2023-02-17T17:49:34.226Z,-6.60
2023-02-17T17:51:38.123Z,-6.68
2023-02-17T17:53:41.676Z,-6.72
2023-02-17T17:55:44.358Z,-6.76
2023-02-17T17:57:48.378Z,-6.81
2023-02-17T17:59:51.178Z,-6.89
2023-02-17T18:01:53.873Z,-6.90
2023-02-17T18:03:58.289Z,-6.93
2023-02-17T18:06:01.523Z,-6.96
2023-02-17T18:08:05.360Z,-7.01
2023-02-17T18:10:12.040Z,-7.03
2023-02-17T18:12:18.685Z,-7.05
2023-02-17T18:14:21.588Z,-7.08
2023-02-17T18:16:27.316Z,-7.09
2023-02-17T18:18:31.225Z,-7.16
2023-02-17T18:20:34.030Z,-7.14
2023-02-17T18:22:36.803Z,-7.15
2023-02-17T18:24:39.358Z,-7.15
2023-02-17T18:26:42.001Z,-7.19
2023-02-17T18:28:45.716Z,-7.23
2023-02-17T18:30:48.483Z,-7.20
2023-02-17T18:32:51.935Z,-7.22
2023-02-17T18:34:57.218Z,-7.25
2023-02-17T18:36:59.834Z,-7.28
2023-02-17T18:39:02.486Z,-7.30
2023-02-17T18:41:05.968Z,-7.30
2023-02-17T18:43:09.613Z,-7.31
2023-02-17T18:45:13.626Z,-7.37
2023-02-17T18:47:16.270Z,-7.39
2023-02-17T18:49:19.045Z,-7.42
2023-02-17T18:51:23.532Z,-7.43
2023-02-17T18:53:26.257Z,-7.47
2023-02-17T18:55:28.896Z,-7.49
2023-02-17T18:57:32.948Z,-7.55
2023-02-17T18:59:35.937Z,-7.60
2023-02-17T19:01:40.999Z,-7.66
2023-02-17T19:03:44.406Z,-7.67
2023-02-17T19:05:46.985Z,-7.72
2023-02-17T19:07:49.600Z,-7.73
2023-02-17T19:09:53.349Z,-7.77
2023-02-17T19:11:56.008Z,-7.78
2023-02-17T19:14:00.812Z,-7.82
2023-02-17T19:16:19.186Z,-7.82
2023-02-17T19:18:21.848Z,-7.84
2023-02-17T19:20:31.654Z,-7.87
2023-02-17T19:22:37.616Z,-7.89
2023-02-17T19:24:42.195Z,-7.92
2023-02-17T19:26:45.075Z,-7.91
2023-02-17T19:28:48.126Z,-7.95
2023-02-17T19:30:50.834Z,-7.95
2023-02-17T19:32:53.588Z,-7.96
2023-02-17T19:34:56.234Z,-7.95
2023-02-17T19:36:59.171Z,-7.99
2023-02-17T19:39:01.799Z,-7.98
2023-02-17T19:41:06.796Z,-8.07
2023-02-17T19:43:09.500Z,-8.08
2023-02-17T19:45:12.129Z,-8.09
2023-02-17T19:47:15.015Z,-8.14
2023-02-17T19:49:17.732Z,-8.17
2023-02-17T19:51:20.609Z,-8.17
2023-02-17T19:53:23.303Z,-8.22
2023-02-17T19:55:26.004Z,-8.22
2023-02-17T19:57:28.748Z,-8.23
2023-02-17T19:59:34.251Z,-8.25
2023-02-17T20:01:37.188Z,-8.33
2023-02-17T20:03:40.145Z,-8.32
2023-02-17T20:05:42.938Z,-8.36
2023-02-17T20:07:45.598Z,-8.39
2023-02-17T20:09:48.458Z,-8.45
2023-02-17T20:11:54.350Z,-8.44
2023-02-17T20:13:57.964Z,-8.46
2023-02-17T20:16:02.109Z,-8.49
2023-02-17T20:18:04.851Z,-8.52
2023-02-17T20:20:10.001Z,-8.54
2023-02-17T20:22:12.608Z,-8.61
2023-02-17T20:24:15.564Z,-8.64
2023-02-17T20:26:27.774Z,-8.70
2023-02-17T20:28:30.362Z,-8.75
2023-02-17T20:30:33.149Z,-8.80
2023-02-17T20:32:36.956Z,-8.88
2023-02-17T20:34:40.142Z,-8.89
2023-02-17T20:36:42.760Z,-8.90
2023-02-17T20:38:45.776Z,-8.95
2023-02-17T20:40:48.447Z,-8.99
2023-02-17T20:42:51.629Z,-9.00
2023-02-17T20:44:56.536Z,-9.06
2023-02-17T20:46:59.621Z,-9.07
2023-02-17T20:49:02.168Z,-9.10
2023-02-17T20:51:05.960Z,-9.12
2023-02-17T20:53:08.647Z,-9.09
2023-02-17T20:55:13.697Z,-9.10
2023-02-17T20:57:16.488Z,-9.13
2023-02-17T20:59:20.700Z,-9.20
2023-02-17T21:01:23.366Z,-9.22
2023-02-17T21:03:26.109Z,-9.21
2023-02-17T21:05:28.913Z,-9.24
2023-02-17T21:07:31.549Z,-9.27
2023-02-17T21:09:34.133Z,-9.29
2023-02-17T21:11:36.799Z,-9.27
2023-02-17T21:13:39.774Z,-9.27
2023-02-17T21:15:42.412Z,-9.31
2023-02-17T21:17:45.869Z,-9.31
2023-02-17T21:19:48.899Z,-9.30
2023-02-17T21:21:51.583Z,-9.35
2023-02-17T21:23:55.122Z,-9.40
2023-02-17T21:25:57.784Z,-9.38
2023-02-17T21:28:00.389Z,-9.40
2023-02-17T21:30:06.715Z,-9.40
2023-02-17T21:32:09.624Z,-9.43
2023-02-17T21:34:12.258Z,-9.47
2023-02-17T21:36:17.370Z,-9.49
2023-02-17T21:38:21.418Z,-9.52
2023-02-17T21:40:24.121Z,-9.50
2023-02-17T21:42:45.973Z,-9.53
2023-02-17T21:44:55.290Z,-9.59
2023-02-17T21:46:58.205Z,-9.63
2023-02-17T21:49:02.024Z,-9.69
2023-02-17T21:51:10.528Z,-9.69
2023-02-17T21:53:13.168Z,-9.71
2023-02-17T21:55:15.840Z,-9.71
2023-02-17T21:57:18.801Z,-9.72
2023-02-17T21:59:21.399Z,-9.79
2023-02-17T22:01:26.183Z,-9.81
2023-02-17T22:03:28.790Z,-9.85
2023-02-17T22:05:32.323Z,-9.92
2023-02-17T22:07:35.909Z,-9.93
2023-02-17T22:09:38.553Z,-9.99
2023-02-17T22:11:43.106Z,-10.01
2023-02-17T22:13:46.067Z,-10.02
2023-02-17T22:15:57.592Z,-10.05
2023-02-17T22:18:00.700Z,-10.03
2023-02-17T22:20:04.774Z,-10.09
2023-02-17T22:22:07.505Z,-10.06
2023-02-17T22:24:10.167Z,-10.11
2023-02-17T22:26:16.214Z,-10.08
2023-02-17T22:28:18.872Z,-10.08
2023-02-17T22:30:21.697Z,-10.12
2023-02-17T22:32:24.531Z,-10.12
2023-02-17T22:34:28.870Z,-10.12
2023-02-17T22:36:34.972Z,-10.14
2023-02-17T22:38:38.111Z,-10.18
2023-02-17T22:40:41.584Z,-10.17
2023-02-17T22:42:44.260Z,-10.23
2023-02-17T22:44:47.450Z,-10.25
2023-02-17T22:46:50.105Z,-10.34
2023-02-17T22:48:53.278Z,-10.34
2023-02-17T22:50:56.204Z,-10.35
2023-02-17T22:52:58.841Z,-10.31
2023-02-17T22:55:01.415Z,-10.34
2023-02-17T22:57:06.136Z,-10.38
2023-02-17T22:59:08.782Z,-10.39
2023-02-17T23:01:13.019Z,-10.39
2023-02-17T23:03:16.573Z,-10.38
2023-02-17T23:05:20.363Z,-10.40
2023-02-17T23:07:23.817Z,-10.40
2023-02-17T23:09:26.358Z,-10.41
2023-02-17T23:11:50.169Z,-10.40
2023-02-17T23:13:52.869Z,-10.41
2023-02-17T23:15:55.423Z,-10.40
2023-02-17T23:17:58.087Z,-10.43
2023-02-17T23:20:00.749Z,-10.40
2023-02-17T23:22:07.443Z,-10.42
2023-02-17T23:24:10.364Z,-10.45
2023-02-17T23:26:15.363Z,-10.49
2023-02-17T23:28:20.364Z,-10.51
2023-02-17T23:30:23.549Z,-10.54
2023-02-17T23:32:26.249Z,-10.57
2023-02-17T23:34:28.902Z,-10.57
2023-02-17T23:36:31.716Z,-10.56
2023-02-17T23:38:34.629Z,-10.57
2023-02-17T23:40:38.090Z,-10.60
2023-02-17T23:42:40.687Z,-10.63
2023-02-17T23:44:43.284Z,-10.59
2023-02-17T23:46:46.260Z,-10.64
2023-02-17T23:48:49.044Z,-10.67
2023-02-17T23:51:02.570Z,-10.71
2023-02-17T23:53:05.531Z,-10.70
2023-02-17T23:55:08.420Z,-10.71
2023-02-17T23:57:11.296Z,-10.70
2023-02-17T23:59:14.084Z,-10.72
